sensor_id;sensor_type;location;lat;lon;timestamp;pressure;altitude;pressure_sealevel;temperature;humidity
71778;BME280;59609;52.430;4.668;2022-11-15T00:00:33;100863.44;;;6.04;100.00
71778;BME280;59609;52.430;4.668;2022-11-15T00:02:58;100867.94;;;6.05;100.00
71778;BME280;59609;52.430;4.668;2022-11-15T00:05:24;100858.84;;;6.04;100.00
71778;BME280;59609;52.430;4.668;2022-11-15T00:07:49;100856.72;;;6.08;100.00
71778;BME280;59609;52.430;4.668;2022-11-15T00:10:15;100864.78;;;6.09;100.00
71778;BME280;59609;52.430;4.668;2022-11-15T00:12:40;100864.50;;;6.12;100.00
71778;BME280;59609;52.430;4.668;2022-11-15T00:15:06;100867.97;;;6.14;100.00
71778;BME280;59609;52.430;4.668;2022-11-15T00:17:32;100863.53;;;6.13;100.00
71778;BME280;59609;52.430;4.668;2022-11-15T00:19:57;100865.09;;;6.16;100.00
71778;BME280;59609;52.430;4.668;2022-11-15T00:22:23;100858.47;;;6.18;100.00
71778;BME280;59609;52.430;4.668;2022-11-15T00:24:48;100864.81;;;6.19;100.00
71778;BME280;59609;52.430;4.668;2022-11-15T00:27:14;100862.28;;;6.27;100.00
71778;BME280;59609;52.430;4.668;2022-11-15T00:29:39;100864.25;;;6.25;100.00
71778;BME280;59609;52.430;4.668;2022-11-15T00:32:11;100863.97;;;6.28;100.00
71778;BME280;59609;52.430;4.668;2022-11-15T00:34:36;100853.03;;;6.28;100.00
71778;BME280;59609;52.430;4.668;2022-11-15T00:37:02;100860.25;;;6.29;100.00
71778;BME280;59609;52.430;4.668;2022-11-15T00:39:27;100850.88;;;6.32;100.00
71778;BME280;59609;52.430;4.668;2022-11-15T00:41:52;100839.06;;;6.31;100.00
71778;BME280;59609;52.430;4.668;2022-11-15T00:44:18;100841.69;;;6.33;100.00
71778;BME280;59609;52.430;4.668;2022-11-15T00:46:43;100829.00;;;6.32;100.00
71778;BME280;59609;52.430;4.668;2022-11-15T00:49:08;100826.28;;;6.32;100.00
71778;BME280;59609;52.430;4.668;2022-11-15T00:51:34;100826.84;;;6.35;100.00
71778;BME280;59609;52.430;4.668;2022-11-15T00:53:59;100820.94;;;6.30;100.00
71778;BME280;59609;52.430;4.668;2022-11-15T00:56:25;100819.94;;;6.31;100.00
71778;BME280;59609;52.430;4.668;2022-11-15T00:58:50;100813.75;;;6.29;100.00
71778;BME280;59609;52.430;4.668;2022-11-15T01:01:15;100818.81;;;6.34;100.00
71778;BME280;59609;52.430;4.668;2022-11-15T01:03:41;100826.84;;;6.35;100.00
71778;BME280;59609;52.430;4.668;2022-11-15T01:06:08;100825.00;;;6.36;100.00
71778;BME280;59609;52.430;4.668;2022-11-15T01:08:34;100827.31;;;6.40;100.00
71778;BME280;59609;52.430;4.668;2022-11-15T01:11:03;100825.69;;;6.38;100.00
71778;BME280;59609;52.430;4.668;2022-11-15T01:13:31;100822.44;;;6.44;100.00
71778;BME280;59609;52.430;4.668;2022-11-15T01:15:57;100826.88;;;6.45;100.00
71778;BME280;59609;52.430;4.668;2022-11-15T01:18:22;100821.97;;;6.48;100.00
71778;BME280;59609;52.430;4.668;2022-11-15T01:20:48;100816.78;;;6.45;100.00
71778;BME280;59609;52.430;4.668;2022-11-15T01:23:13;100813.66;;;6.50;100.00
71778;BME280;59609;52.430;4.668;2022-11-15T01:25:39;100798.34;;;6.47;100.00
71778;BME280;59609;52.430;4.668;2022-11-15T01:28:04;100806.72;;;6.46;100.00
71778;BME280;59609;52.430;4.668;2022-11-15T01:30:29;100808.31;;;6.48;100.00
71778;BME280;59609;52.430;4.668;2022-11-15T01:32:55;100810.03;;;6.49;100.00
71778;BME280;59609;52.430;4.668;2022-11-15T01:35:20;100805.44;;;6.50;100.00
71778;BME280;59609;52.430;4.668;2022-11-15T01:37:46;100800.97;;;6.49;100.00
71778;BME280;59609;52.430;4.668;2022-11-15T01:40:11;100800.09;;;6.48;100.00
71778;BME280;59609;52.430;4.668;2022-11-15T01:42:36;100795.19;;;6.52;100.00
71778;BME280;59609;52.430;4.668;2022-11-15T01:45:02;100803.28;;;6.53;100.00
71778;BME280;59609;52.430;4.668;2022-11-15T01:47:33;100798.66;;;6.54;100.00
71778;BME280;59609;52.430;4.668;2022-11-15T01:50:03;100790.59;;;6.52;100.00
71778;BME280;59609;52.430;4.668;2022-11-15T01:52:31;100781.69;;;6.50;100.00
71778;BME280;59609;52.430;4.668;2022-11-15T01:55:11;100785.69;;;6.56;100.00
71778;BME280;59609;52.430;4.668;2022-11-15T01:57:39;100783.69;;;6.58;100.00
71778;BME280;59609;52.430;4.668;2022-11-15T02:00:08;100780.53;;;6.53;100.00
71778;BME280;59609;52.430;4.668;2022-11-15T02:02:34;100776.19;;;6.50;100.00
71778;BME280;59609;52.430;4.668;2022-11-15T02:05:01;100769.41;;;6.54;100.00
71778;BME280;59609;52.430;4.668;2022-11-15T02:07:28;100755.72;;;6.54;100.00
71778;BME280;59609;52.430;4.668;2022-11-15T02:09:53;100749.84;;;6.49;100.00
71778;BME280;59609;52.430;4.668;2022-11-15T02:12:21;100764.81;;;6.55;100.00
71778;BME280;59609;52.430;4.668;2022-11-15T02:14:51;100752.69;;;6.57;100.00
71778;BME280;59609;52.430;4.668;2022-11-15T02:20:36;100746.69;;;6.63;100.00
71778;BME280;59609;52.430;4.668;2022-11-15T02:28:48;100740.16;;;6.64;100.00
71778;BME280;59609;52.430;4.668;2022-11-15T02:36:57;100726.06;;;6.69;100.00
71778;BME280;59609;52.430;4.668;2022-11-15T02:39:35;100726.22;;;6.77;100.00
71778;BME280;59609;52.430;4.668;2022-11-15T02:42:14;100717.25;;;6.75;100.00
71778;BME280;59609;52.430;4.668;2022-11-15T02:45:03;100717.84;;;6.79;100.00
71778;BME280;59609;52.430;4.668;2022-11-15T02:47:33;100704.44;;;6.76;100.00
71778;BME280;59609;52.430;4.668;2022-11-15T02:50:05;100711.34;;;6.80;100.00
71778;BME280;59609;52.430;4.668;2022-11-15T02:52:32;100705.72;;;6.81;100.00
71778;BME280;59609;52.430;4.668;2022-11-15T02:54:59;100696.22;;;6.85;100.00
71778;BME280;59609;52.430;4.668;2022-11-15T02:57:58;100693.03;;;6.90;100.00
71778;BME280;59609;52.430;4.668;2022-11-15T03:00:34;100696.19;;;6.95;100.00
71778;BME280;59609;52.430;4.668;2022-11-15T03:05:46;100693.13;;;7.07;100.00
71778;BME280;59609;52.430;4.668;2022-11-15T03:11:11;100697.16;;;7.13;100.00
71778;BME280;59609;52.430;4.668;2022-11-15T03:16:16;100689.34;;;7.18;100.00
71778;BME280;59609;52.430;4.668;2022-11-15T03:18:51;100686.16;;;7.22;100.00
71778;BME280;59609;52.430;4.668;2022-11-15T03:21:19;100684.00;;;7.26;100.00
71778;BME280;59609;52.430;4.668;2022-11-15T03:23:48;100690.03;;;7.30;100.00
71778;BME280;59609;52.430;4.668;2022-11-15T03:26:16;100687.00;;;7.33;100.00
71778;BME280;59609;52.430;4.668;2022-11-15T03:28:58;100682.38;;;7.33;100.00
71778;BME280;59609;52.430;4.668;2022-11-15T03:31:29;100684.81;;;7.36;100.00
71778;BME280;59609;52.430;4.668;2022-11-15T03:34:41;100683.22;;;7.43;100.00
71778;BME280;59609;52.430;4.668;2022-11-15T03:37:10;100678.44;;;7.45;100.00
71778;BME280;59609;52.430;4.668;2022-11-15T03:39:38;100669.59;;;7.51;100.00
71778;BME280;59609;52.430;4.668;2022-11-15T03:47:33;100665.47;;;7.65;100.00
71778;BME280;59609;52.430;4.668;2022-11-15T03:50:19;100666.91;;;7.69;100.00
71778;BME280;59609;52.430;4.668;2022-11-15T03:52:47;100669.22;;;7.73;100.00
71778;BME280;59609;52.430;4.668;2022-11-15T03:55:16;100671.34;;;7.80;100.00
71778;BME280;59609;52.430;4.668;2022-11-15T03:57:42;100667.41;;;7.82;100.00
71778;BME280;59609;52.430;4.668;2022-11-15T04:00:08;100661.78;;;7.84;100.00
71778;BME280;59609;52.430;4.668;2022-11-15T04:02:34;100665.59;;;7.91;100.00
71778;BME280;59609;52.430;4.668;2022-11-15T04:05:00;100663.66;;;8.01;100.00
71778;BME280;59609;52.430;4.668;2022-11-15T04:07:26;100656.84;;;8.05;100.00
71778;BME280;59609;52.430;4.668;2022-11-15T04:09:51;100658.66;;;8.14;100.00
71778;BME280;59609;52.430;4.668;2022-11-15T04:12:46;100655.91;;;8.14;100.00
71778;BME280;59609;52.430;4.668;2022-11-15T04:15:23;100658.63;;;8.23;100.00
71778;BME280;59609;52.430;4.668;2022-11-15T04:17:52;100655.97;;;8.32;100.00
71778;BME280;59609;52.430;4.668;2022-11-15T04:20:26;100650.56;;;8.40;100.00
71778;BME280;59609;52.430;4.668;2022-11-15T04:23:12;100654.22;;;8.48;100.00
71778;BME280;59609;52.430;4.668;2022-11-15T04:25:59;100644.56;;;8.44;100.00
71778;BME280;59609;52.430;4.668;2022-11-15T04:28:25;100646.94;;;8.57;100.00
71778;BME280;59609;52.430;4.668;2022-11-15T04:30:50;100644.41;;;8.63;100.00
71778;BME280;59609;52.430;4.668;2022-11-15T04:33:16;100647.38;;;8.70;100.00
71778;BME280;59609;52.430;4.668;2022-11-15T04:35:42;100643.81;;;8.77;100.00
71778;BME280;59609;52.430;4.668;2022-11-15T04:38:09;100647.50;;;8.86;100.00
71778;BME280;59609;52.430;4.668;2022-11-15T04:40:35;100644.09;;;8.92;100.00
71778;BME280;59609;52.430;4.668;2022-11-15T04:43:01;100648.03;;;8.90;100.00
71778;BME280;59609;52.430;4.668;2022-11-15T04:45:26;100648.59;;;8.93;100.00
71778;BME280;59609;52.430;4.668;2022-11-15T04:47:52;100646.38;;;8.97;100.00
71778;BME280;59609;52.430;4.668;2022-11-15T04:50:17;100651.56;;;9.00;100.00
71778;BME280;59609;52.430;4.668;2022-11-15T04:52:50;100655.38;;;9.07;100.00
71778;BME280;59609;52.430;4.668;2022-11-15T04:55:16;100646.06;;;9.00;100.00
71778;BME280;59609;52.430;4.668;2022-11-15T04:57:41;100646.75;;;9.02;100.00
71778;BME280;59609;52.430;4.668;2022-11-15T05:00:09;100650.44;;;9.10;100.00
71778;BME280;59609;52.430;4.668;2022-11-15T05:02:35;100642.66;;;9.06;100.00
71778;BME280;59609;52.430;4.668;2022-11-15T05:05:19;100637.50;;;9.11;100.00
71778;BME280;59609;52.430;4.668;2022-11-15T05:07:45;100643.72;;;9.13;100.00
71778;BME280;59609;52.430;4.668;2022-11-15T05:10:10;100644.41;;;9.15;100.00
71778;BME280;59609;52.430;4.668;2022-11-15T05:12:36;100630.34;;;9.18;100.00
71778;BME280;59609;52.430;4.668;2022-11-15T05:15:02;100630.56;;;9.24;100.00
71778;BME280;59609;52.430;4.668;2022-11-15T05:17:27;100626.91;;;9.16;100.00
71778;BME280;59609;52.430;4.668;2022-11-15T05:19:53;100628.66;;;9.25;100.00
71778;BME280;59609;52.430;4.668;2022-11-15T05:22:19;100627.69;;;9.34;100.00
71778;BME280;59609;52.430;4.668;2022-11-15T05:24:44;100646.78;;;9.36;100.00
71778;BME280;59609;52.430;4.668;2022-11-15T05:27:10;100642.50;;;9.41;100.00
71778;BME280;59609;52.430;4.668;2022-11-15T05:29:35;100650.78;;;9.49;100.00
71778;BME280;59609;52.430;4.668;2022-11-15T05:32:00;100649.97;;;9.57;100.00
71778;BME280;59609;52.430;4.668;2022-11-15T05:34:26;100646.69;;;9.53;100.00
71778;BME280;59609;52.430;4.668;2022-11-15T05:36:52;100648.59;;;9.61;100.00
71778;BME280;59609;52.430;4.668;2022-11-15T05:39:17;100653.25;;;9.60;100.00
71778;BME280;59609;52.430;4.668;2022-11-15T05:41:47;100646.69;;;9.53;100.00
71778;BME280;59609;52.430;4.668;2022-11-15T05:44:17;100656.69;;;9.62;100.00
71778;BME280;59609;52.430;4.668;2022-11-15T05:46:44;100657.38;;;9.64;100.00
71778;BME280;59609;52.430;4.668;2022-11-15T05:49:12;100656.69;;;9.62;100.00
71778;BME280;59609;52.430;4.668;2022-11-15T05:51:39;100654.63;;;9.64;100.00
71778;BME280;59609;52.430;4.668;2022-11-15T05:54:06;100666.31;;;9.58;100.00
71778;BME280;59609;52.430;4.668;2022-11-15T05:56:32;100660.78;;;9.58;100.00
71778;BME280;59609;52.430;4.668;2022-11-15T05:58:58;100665.28;;;9.67;100.00
71778;BME280;59609;52.430;4.668;2022-11-15T06:01:24;100663.25;;;9.69;100.00
71778;BME280;59609;52.430;4.668;2022-11-15T06:03:50;100672.06;;;9.81;100.00
71778;BME280;59609;52.430;4.668;2022-11-15T06:06:15;100676.72;;;9.80;100.00
71778;BME280;59609;52.430;4.668;2022-11-15T06:08:41;100675.53;;;9.83;100.00
71778;BME280;59609;52.430;4.668;2022-11-15T06:11:07;100680.69;;;9.86;100.00
71778;BME280;59609;52.430;4.668;2022-11-15T06:13:33;100674.72;;;9.91;100.00
71778;BME280;59609;52.430;4.668;2022-11-15T06:15:58;100674.19;;;9.87;100.00
71778;BME280;59609;52.430;4.668;2022-11-15T06:18:24;100675.53;;;9.83;100.00
71778;BME280;59609;52.430;4.668;2022-11-15T06:20:49;100678.81;;;9.87;100.00
71778;BME280;59609;52.430;4.668;2022-11-15T06:23:15;100673.50;;;9.93;100.00
71778;BME280;59609;52.430;4.668;2022-11-15T06:25:40;100684.13;;;9.88;100.00
71778;BME280;59609;52.430;4.668;2022-11-15T06:28:05;100680.22;;;9.91;100.00
71778;BME280;59609;52.430;4.668;2022-11-15T06:30:31;100684.66;;;9.83;100.00
71778;BME280;59609;52.430;4.668;2022-11-15T06:33:00;100691.53;;;9.88;100.00
71778;BME280;59609;52.430;4.668;2022-11-15T06:35:27;100689.63;;;9.80;100.00
71778;BME280;59609;52.430;4.668;2022-11-15T06:37:52;100684.97;;;9.80;100.00
71778;BME280;59609;52.430;4.668;2022-11-15T06:40:18;100688.75;;;9.79;100.00
71778;BME280;59609;52.430;4.668;2022-11-15T06:42:43;100682.03;;;9.74;100.00
71778;BME280;59609;52.430;4.668;2022-11-15T06:45:09;100687.69;;;9.72;100.00
71778;BME280;59609;52.430;4.668;2022-11-15T06:47:34;100693.34;;;9.71;100.00
71778;BME280;59609;52.430;4.668;2022-11-15T06:49:59;100687.69;;;9.72;100.00
71778;BME280;59609;52.430;4.668;2022-11-15T06:52:25;100699.34;;;9.66;100.00
71778;BME280;59609;52.430;4.668;2022-11-15T06:54:50;100692.38;;;9.80;100.00
71778;BME280;59609;52.430;4.668;2022-11-15T06:57:15;100696.69;;;9.82;100.00
71778;BME280;59609;52.430;4.668;2022-11-15T06:59:41;100699.25;;;9.84;100.00
71778;BME280;59609;52.430;4.668;2022-11-15T07:02:11;100710.78;;;9.88;100.00
71778;BME280;59609;52.430;4.668;2022-11-15T07:04:37;100705.47;;;9.86;100.00
71778;BME280;59609;52.430;4.668;2022-11-15T07:07:02;100710.09;;;9.86;100.00
71778;BME280;59609;52.430;4.668;2022-11-15T07:09:28;100709.94;;;9.87;100.00
71778;BME280;59609;52.430;4.668;2022-11-15T07:11:53;100715.75;;;9.84;100.00
71778;BME280;59609;52.430;4.668;2022-11-15T07:14:18;100718.31;;;9.77;100.00
71778;BME280;59609;52.430;4.668;2022-11-15T07:16:44;100711.78;;;9.78;100.00
71778;BME280;59609;52.430;4.668;2022-11-15T07:19:09;100708.34;;;9.76;100.00
71778;BME280;59609;52.430;4.668;2022-11-15T07:21:36;100710.69;;;9.63;100.00
71778;BME280;59609;52.430;4.668;2022-11-15T07:24:01;100699.69;;;9.63;100.00
71778;BME280;59609;52.430;4.668;2022-11-15T07:26:27;100709.50;;;9.66;100.00
71778;BME280;59609;52.430;4.668;2022-11-15T07:28:52;100710.16;;;9.60;100.00
71778;BME280;59609;52.430;4.668;2022-11-15T07:31:17;100720.94;;;9.53;100.00
71778;BME280;59609;52.430;4.668;2022-11-15T07:33:43;100712.16;;;9.50;100.00
71778;BME280;59609;52.430;4.668;2022-11-15T07:36:08;100711.63;;;9.46;100.00
71778;BME280;59609;52.430;4.668;2022-11-15T07:38:35;100712.50;;;9.47;100.00
71778;BME280;59609;52.430;4.668;2022-11-15T07:41:02;100703.41;;;9.54;100.00
71778;BME280;59609;52.430;4.668;2022-11-15T07:43:28;100705.66;;;9.59;100.00
71778;BME280;59609;52.430;4.668;2022-11-15T07:45:55;100693.47;;;9.61;100.00
71778;BME280;59609;52.430;4.668;2022-11-15T07:48:21;100697.28;;;9.60;100.00
71778;BME280;59609;52.430;4.668;2022-11-15T07:50:46;100692.81;;;9.67;100.00
71778;BME280;59609;52.430;4.668;2022-11-15T07:53:12;100701.25;;;9.66;100.00
71778;BME280;59609;52.430;4.668;2022-11-15T07:55:39;100693.69;;;9.68;100.00
71778;BME280;59609;52.430;4.668;2022-11-15T07:58:08;100686.81;;;9.72;100.00
71778;BME280;59609;52.430;4.668;2022-11-15T08:00:35;100688.03;;;9.77;100.00
71778;BME280;59609;52.430;4.668;2022-11-15T08:03:05;100687.03;;;9.78;100.00
71778;BME280;59609;52.430;4.668;2022-11-15T08:05:31;100690.97;;;9.84;100.00
71778;BME280;59609;52.430;4.668;2022-11-15T08:07:56;100687.22;;;9.85;100.00
71778;BME280;59609;52.430;4.668;2022-11-15T08:10:22;100695.31;;;9.87;100.00
71778;BME280;59609;52.430;4.668;2022-11-15T08:12:47;100694.94;;;9.81;100.00
71778;BME280;59609;52.430;4.668;2022-11-15T08:15:13;100706.63;;;9.75;100.00
71778;BME280;59609;52.430;4.668;2022-11-15T08:17:38;100698.63;;;9.64;100.00
71778;BME280;59609;52.430;4.668;2022-11-15T08:20:03;100685.75;;;9.65;100.00
71778;BME280;59609;52.430;4.668;2022-11-15T08:22:29;100677.84;;;9.62;100.00
71778;BME280;59609;52.430;4.668;2022-11-15T08:24:55;100675.59;;;9.57;100.00
71778;BME280;59609;52.430;4.668;2022-11-15T08:27:20;100681.94;;;9.58;100.00
71778;BME280;59609;52.430;4.668;2022-11-15T08:29:47;100680.38;;;9.55;100.00
71778;BME280;59609;52.430;4.668;2022-11-15T08:32:13;100673.69;;;9.58;100.00
71778;BME280;59609;52.430;4.668;2022-11-15T08:34:38;100661.50;;;9.60;100.00
71778;BME280;59609;52.430;4.668;2022-11-15T08:37:04;100665.97;;;9.61;100.00
71778;BME280;59609;52.430;4.668;2022-11-15T08:39:30;100667.84;;;9.61;100.00
71778;BME280;59609;52.430;4.668;2022-11-15T08:41:56;100659.09;;;9.57;100.00
71778;BME280;59609;52.430;4.668;2022-11-15T08:44:21;100658.75;;;9.60;100.00
71778;BME280;59609;52.430;4.668;2022-11-15T08:46:47;100645.22;;;9.67;100.00
71778;BME280;59609;52.430;4.668;2022-11-15T08:49:12;100655.88;;;9.78;100.00
71778;BME280;59609;52.430;4.668;2022-11-15T08:51:37;100646.84;;;9.94;100.00
71778;BME280;59609;52.430;4.668;2022-11-15T08:54:03;100655.81;;;10.04;100.00
71778;BME280;59609;52.430;4.668;2022-11-15T08:56:29;100647.91;;;10.09;100.00
71778;BME280;59609;52.430;4.668;2022-11-15T08:58:54;100644.19;;;10.26;100.00
71778;BME280;59609;52.430;4.668;2022-11-15T09:01:20;100653.47;;;10.41;100.00
71778;BME280;59609;52.430;4.668;2022-11-15T09:03:46;100649.19;;;10.55;100.00
71778;BME280;59609;52.430;4.668;2022-11-15T09:06:11;100652.13;;;10.77;100.00
71778;BME280;59609;52.430;4.668;2022-11-15T09:08:38;100644.19;;;11.07;100.00
71778;BME280;59609;52.430;4.668;2022-11-15T09:11:05;100644.00;;;11.08;100.00
71778;BME280;59609;52.430;4.668;2022-11-15T09:13:31;100648.81;;;11.06;100.00
71778;BME280;59609;52.430;4.668;2022-11-15T09:16:00;100646.38;;;11.19;100.00
71778;BME280;59609;52.430;4.668;2022-11-15T09:18:27;100640.31;;;11.32;100.00
71778;BME280;59609;52.430;4.668;2022-11-15T09:20:55;100638.16;;;11.58;100.00
71778;BME280;59609;52.430;4.668;2022-11-15T09:23:21;100635.22;;;11.60;100.00
71778;BME280;59609;52.430;4.668;2022-11-15T09:25:47;100627.59;;;11.70;100.00
71778;BME280;59609;52.430;4.668;2022-11-15T09:28:12;100631.75;;;11.74;100.00
71778;BME280;59609;52.430;4.668;2022-11-15T09:30:38;100639.91;;;11.51;100.00
71778;BME280;59609;52.430;4.668;2022-11-15T09:33:10;100648.38;;;11.50;100.00
71778;BME280;59609;52.430;4.668;2022-11-15T09:35:36;100646.50;;;11.42;100.00
71778;BME280;59609;52.430;4.668;2022-11-15T09:38:02;100646.69;;;11.41;100.00
71778;BME280;59609;52.430;4.668;2022-11-15T09:40:30;100647.81;;;11.54;100.00
71778;BME280;59609;52.430;4.668;2022-11-15T09:48:19;100642.34;;;11.38;100.00
71778;BME280;59609;52.430;4.668;2022-11-15T09:50:50;100651.69;;;11.37;100.00
71778;BME280;59609;52.430;4.668;2022-11-15T09:53:41;100652.06;;;11.34;100.00
71778;BME280;59609;52.430;4.668;2022-11-15T09:56:22;100639.66;;;11.22;100.00
71778;BME280;59609;52.430;4.668;2022-11-15T10:04:26;100649.00;;;11.13;100.00
71778;BME280;59609;52.430;4.668;2022-11-15T10:07:02;100649.66;;;11.15;100.00
71778;BME280;59609;52.430;4.668;2022-11-15T10:09:39;100653.13;;;11.17;100.00
71778;BME280;59609;52.430;4.668;2022-11-15T10:12:09;100642.97;;;11.17;100.00
71778;BME280;59609;52.430;4.668;2022-11-15T10:14:35;100627.44;;;11.16;100.00
71778;BME280;59609;52.430;4.668;2022-11-15T10:19:50;100622.75;;;11.25;100.00
71778;BME280;59609;52.430;4.668;2022-11-15T10:22:25;100616.34;;;11.32;100.00
71778;BME280;59609;52.430;4.668;2022-11-15T10:25:00;100604.91;;;11.52;100.00
71778;BME280;59609;52.430;4.668;2022-11-15T10:27:35;100602.84;;;11.46;100.00
71778;BME280;59609;52.430;4.668;2022-11-15T10:30:01;100597.53;;;11.44;100.00
71778;BME280;59609;52.430;4.668;2022-11-15T10:32:29;100587.47;;;11.51;100.00
71778;BME280;59609;52.430;4.668;2022-11-15T10:34:58;100582.06;;;11.66;100.00
71778;BME280;59609;52.430;4.668;2022-11-15T10:37:31;100577.22;;;11.68;100.00
71778;BME280;59609;52.430;4.668;2022-11-15T10:40:16;100580.84;;;11.76;100.00
71778;BME280;59609;52.430;4.668;2022-11-15T10:42:42;100577.06;;;11.77;100.00
71778;BME280;59609;52.430;4.668;2022-11-15T10:45:31;100565.03;;;11.70;100.00
71778;BME280;59609;52.430;4.668;2022-11-15T10:48:23;100566.72;;;11.71;100.00
71778;BME280;59609;52.430;4.668;2022-11-15T10:50:50;100572.56;;;11.76;100.00
71778;BME280;59609;52.430;4.668;2022-11-15T10:53:47;100577.34;;;11.82;100.00
71778;BME280;59609;52.430;4.668;2022-11-15T10:56:14;100578.72;;;11.86;100.00
71778;BME280;59609;52.430;4.668;2022-11-15T10:58:50;100567.31;;;11.90;100.00
71778;BME280;59609;52.430;4.668;2022-11-15T11:01:20;100569.78;;;12.07;100.00
71778;BME280;59609;52.430;4.668;2022-11-15T11:06:26;100560.03;;;11.97;99.54
71778;BME280;59609;52.430;4.668;2022-11-15T11:08:59;100559.28;;;12.03;100.00
71778;BME280;59609;52.430;4.668;2022-11-15T11:11:44;100555.56;;;11.87;99.97
71778;BME280;59609;52.430;4.668;2022-11-15T11:14:18;100555.41;;;11.89;99.42
71778;BME280;59609;52.430;4.668;2022-11-15T11:20:10;100555.00;;;12.00;98.89
71778;BME280;59609;52.430;4.668;2022-11-15T11:23:04;100553.09;;;12.01;98.94
71778;BME280;59609;52.430;4.668;2022-11-15T11:25:57;100544.91;;;12.30;95.76
71778;BME280;59609;52.430;4.668;2022-11-15T11:28:51;100535.91;;;12.13;95.65
71778;BME280;59609;52.430;4.668;2022-11-15T11:47:49;100500.03;;;12.28;94.70
71778;BME280;59609;52.430;4.668;2022-11-15T11:50:21;100494.22;;;12.23;94.42
71778;BME280;59609;52.430;4.668;2022-11-15T11:52:56;100481.13;;;12.39;94.69
71778;BME280;59609;52.430;4.668;2022-11-15T11:56:14;100470.50;;;12.28;93.36
71778;BME280;59609;52.430;4.668;2022-11-15T11:58:34;100480.69;;;12.28;94.06
71778;BME280;59609;52.430;4.668;2022-11-15T12:01:11;100468.81;;;12.27;93.15
71778;BME280;59609;52.430;4.668;2022-11-15T12:03:46;100468.81;;;12.27;94.29
71778;BME280;59609;52.430;4.668;2022-11-15T12:09:34;100465.84;;;12.29;92.23
71778;BME280;59609;52.430;4.668;2022-11-15T12:12:08;100466.13;;;12.19;93.19
71778;BME280;59609;52.430;4.668;2022-11-15T12:17:17;100451.38;;;12.27;90.89
71778;BME280;59609;52.430;4.668;2022-11-15T12:19:43;100440.91;;;12.37;91.39
71778;BME280;59609;52.430;4.668;2022-11-15T12:22:23;100434.03;;;12.33;92.29
71778;BME280;59609;52.430;4.668;2022-11-15T12:25:00;100431.75;;;12.51;90.61
71778;BME280;59609;52.430;4.668;2022-11-15T12:27:38;100428.25;;;12.57;89.88
71778;BME280;59609;52.430;4.668;2022-11-15T12:30:15;100430.06;;;12.50;90.26
71778;BME280;59609;52.430;4.668;2022-11-15T12:32:58;100432.84;;;12.50;90.65
71778;BME280;59609;52.430;4.668;2022-11-15T12:35:40;100427.31;;;12.50;89.66
71778;BME280;59609;52.430;4.668;2022-11-15T12:41:14;100404.91;;;12.45;90.41
71778;BME280;59609;52.430;4.668;2022-11-15T12:43:42;100395.84;;;12.51;90.44
71778;BME280;59609;52.430;4.668;2022-11-15T12:46:21;100392.50;;;12.41;91.05
71778;BME280;59609;52.430;4.668;2022-11-15T12:48:53;100396.03;;;12.35;91.26
71778;BME280;59609;52.430;4.668;2022-11-15T12:59:52;100386.97;;;12.41;90.52
71778;BME280;59609;52.430;4.668;2022-11-15T13:04:52;100373.09;;;12.64;89.84
71778;BME280;59609;52.430;4.668;2022-11-15T13:17:49;100348.03;;;12.51;88.39
71778;BME280;59609;52.430;4.668;2022-11-15T13:33:44;100317.34;;;12.31;87.27
71778;BME280;59609;52.430;4.668;2022-11-15T13:38:43;100310.97;;;12.30;85.34
71778;BME280;59609;52.430;4.668;2022-11-15T13:41:21;100310.31;;;12.43;84.92
71778;BME280;59609;52.430;4.668;2022-11-15T13:43:49;100303.06;;;12.42;84.98
71778;BME280;59609;52.430;4.668;2022-11-15T13:49:03;100301.94;;;12.36;85.66
71778;BME280;59609;52.430;4.668;2022-11-15T13:51:51;100306.78;;;12.34;85.85
71778;BME280;59609;52.430;4.668;2022-11-15T13:57:21;100298.28;;;12.21;85.71
71778;BME280;59609;52.430;4.668;2022-11-15T13:59:57;100293.53;;;12.15;86.06
71778;BME280;59609;52.430;4.668;2022-11-15T14:02:31;100298.03;;;12.16;86.58
71778;BME280;59609;52.430;4.668;2022-11-15T14:05:05;100287.84;;;12.02;87.51
71778;BME280;59609;52.430;4.668;2022-11-15T14:07:39;100278.31;;;12.05;87.02
71778;BME280;59609;52.430;4.668;2022-11-15T14:10:31;100278.31;;;12.05;87.01
71778;BME280;59609;52.430;4.668;2022-11-15T14:12:58;100268.22;;;11.97;86.78
71778;BME280;59609;52.430;4.668;2022-11-15T14:15:28;100267.38;;;11.97;86.46
71778;BME280;59609;52.430;4.668;2022-11-15T14:17:54;100258.88;;;11.98;86.09
71778;BME280;59609;52.430;4.668;2022-11-15T14:22:55;100247.56;;;11.93;85.84
71778;BME280;59609;52.430;4.668;2022-11-15T14:25:25;100248.91;;;11.82;87.37
71778;BME280;59609;52.430;4.668;2022-11-15T14:30:39;100232.34;;;11.82;86.87
71778;BME280;59609;52.430;4.668;2022-11-15T14:35:46;100227.63;;;11.68;87.33
71778;BME280;59609;52.430;4.668;2022-11-15T14:38:11;100226.41;;;11.71;87.77
71778;BME280;59609;52.430;4.668;2022-11-15T14:40:37;100220.34;;;11.75;87.57
71778;BME280;59609;52.430;4.668;2022-11-15T14:43:02;100204.69;;;11.68;87.62
71778;BME280;59609;52.430;4.668;2022-11-15T14:45:28;100205.94;;;11.65;87.31
71778;BME280;59609;52.430;4.668;2022-11-15T14:47:53;100207.81;;;11.65;87.33
71778;BME280;59609;52.430;4.668;2022-11-15T14:50:20;100198.91;;;11.63;86.93
71778;BME280;59609;52.430;4.668;2022-11-15T14:52:46;100200.63;;;11.64;86.57
71778;BME280;59609;52.430;4.668;2022-11-15T14:55:22;100201.75;;;11.69;86.05
71778;BME280;59609;52.430;4.668;2022-11-15T14:57:48;100193.00;;;11.66;86.13
71778;BME280;59609;52.430;4.668;2022-11-15T15:00:14;100193.66;;;11.68;85.78
71778;BME280;59609;52.430;4.668;2022-11-15T15:02:41;100184.72;;;11.66;86.05